SWA3799 KAUS-KLAS
Flight info
| Callsign | SWA3799 |
|---|---|
| Flight time | N/A |
| Altitude | 30000 |
| Route | AEROZ2 SJT KF15Y CNX ZUN HAHAA RKSTR4 |
| Aircraft | B738/M-SDE2E3FGHIRWXY/LB1 |
Departure
| Time | N/A |
|---|---|
| Airport | Austin Bergstrom International Airport (KAUS) |
Arrival
| Time | 2026-05-03 21:00 |
|---|---|
| Airport | Harry Reid International Airport (KLAS) |
| Time | Latitude | Longitude | Altitude | Speed | Heading |
|---|---|---|---|---|---|
| 2026-05-03 20:26 | 35.40858 | -111.58333 | 31941 ft | 386 kts | 278° |
| 2026-05-03 20:27 | 35.41410 | -111.61547 | 31934 ft | 386 kts | 278° |
| 2026-05-03 20:27 | 35.42513 | -111.68001 | 31937 ft | 386 kts | 278° |
| 2026-05-03 20:28 | 35.43611 | -111.74454 | 31946 ft | 388 kts | 278° |
| 2026-05-03 20:28 | 35.44708 | -111.80918 | 31975 ft | 389 kts | 277° |
| 2026-05-03 20:29 | 35.45798 | -111.87413 | 31946 ft | 389 kts | 276° |
| 2026-05-03 20:29 | 35.46658 | -111.93951 | 31934 ft | 388 kts | 275° |
| 2026-05-03 20:30 | 35.47438 | -112.00481 | 31929 ft | 387 kts | 275° |
| 2026-05-03 20:30 | 35.48231 | -112.06992 | 31921 ft | 386 kts | 275° |
| 2026-05-03 20:31 | 35.49037 | -112.13499 | 31918 ft | 385 kts | 275° |
| 2026-05-03 20:31 | 35.49842 | -112.19979 | 31903 ft | 384 kts | 275° |
| 2026-05-03 20:32 | 35.50643 | -112.26448 | 31900 ft | 383 kts | 275° |
| 2026-05-03 20:32 | 35.51441 | -112.32924 | 31884 ft | 382 kts | 275° |
| 2026-05-03 20:33 | 35.52232 | -112.39367 | 31889 ft | 381 kts | 275° |
| 2026-05-03 20:33 | 35.53018 | -112.45802 | 31879 ft | 381 kts | 274° |
| 2026-05-03 20:34 | 35.53800 | -112.52234 | 31877 ft | 381 kts | 274° |
| 2026-05-03 20:34 | 35.54581 | -112.58691 | 31888 ft | 382 kts | 274° |
| 2026-05-03 20:35 | 35.55355 | -112.65114 | 31872 ft | 383 kts | 274° |
| 2026-05-03 20:35 | 35.56133 | -112.71603 | 31872 ft | 384 kts | 274° |
| 2026-05-03 20:36 | 35.56899 | -112.78023 | 31874 ft | 385 kts | 274° |
| 2026-05-03 20:37 | 35.57603 | -112.83938 | 31866 ft | 386 kts | 274° |
| 2026-05-03 20:37 | 35.58373 | -112.90441 | 31850 ft | 380 kts | 274° |
| 2026-05-03 20:37 | 35.58748 | -112.93595 | 31741 ft | 369 kts | 274° |
| 2026-05-03 20:38 | 35.59115 | -112.96703 | 31431 ft | 365 kts | 274° |
| 2026-05-03 20:38 | 35.59477 | -112.99801 | 31067 ft | 366 kts | 274° |
| 2026-05-03 20:38 | 35.59838 | -113.02896 | 30763 ft | 366 kts | 273° |
| 2026-05-03 20:38 | 35.60199 | -113.05999 | 30463 ft | 366 kts | 273° |
| 2026-05-03 20:39 | 35.60560 | -113.09108 | 30080 ft | 368 kts | 273° |
| 2026-05-03 20:39 | 35.60916 | -113.12186 | 29660 ft | 369 kts | 273° |
| 2026-05-03 20:39 | 35.61282 | -113.15335 | 29108 ft | 367 kts | 273° |
| 2026-05-03 20:39 | 35.61636 | -113.18389 | 28509 ft | 364 kts | 273° |
| 2026-05-03 20:40 | 35.61991 | -113.21460 | 27920 ft | 361 kts | 273° |
| 2026-05-03 20:40 | 35.62342 | -113.24499 | 27331 ft | 358 kts | 273° |
| 2026-05-03 20:40 | 35.62691 | -113.27539 | 26783 ft | 357 kts | 272° |
| 2026-05-03 20:40 | 35.63037 | -113.30566 | 26219 ft | 358 kts | 272° |
| 2026-05-03 20:41 | 35.63382 | -113.33593 | 25658 ft | 359 kts | 272° |
| 2026-05-03 20:41 | 35.63730 | -113.36656 | 25099 ft | 363 kts | 272° |
| 2026-05-03 20:41 | 35.64080 | -113.39737 | 24571 ft | 367 kts | 273° |
| 2026-05-03 20:41 | 35.64441 | -113.42856 | 24031 ft | 369 kts | 272° |
| 2026-05-03 20:42 | 35.64784 | -113.45943 | 23512 ft | 368 kts | 272° |
| 2026-05-03 20:42 | 35.65137 | -113.49059 | 22918 ft | 368 kts | 273° |
| 2026-05-03 20:42 | 35.65554 | -113.52163 | 22302 ft | 369 kts | 275° |
| 2026-05-03 20:42 | 35.66056 | -113.55257 | 21927 ft | 369 kts | 276° |
| 2026-05-03 20:43 | 35.66582 | -113.58342 | 21589 ft | 369 kts | 277° |
| 2026-05-03 20:43 | 35.67110 | -113.61428 | 21255 ft | 368 kts | 277° |
| 2026-05-03 20:43 | 35.67629 | -113.64502 | 20916 ft | 367 kts | 276° |
| 2026-05-03 20:43 | 35.68141 | -113.67582 | 20592 ft | 367 kts | 276° |
| 2026-05-03 20:44 | 35.68647 | -113.70655 | 20264 ft | 366 kts | 276° |
| 2026-05-03 20:44 | 35.69151 | -113.73724 | 19942 ft | 366 kts | 277° |
| 2026-05-03 20:44 | 35.69653 | -113.76793 | 19630 ft | 365 kts | 276° |
| 2026-05-03 20:44 | 35.70151 | -113.79857 | 19295 ft | 364 kts | 276° |
| 2026-05-03 20:45 | 35.70646 | -113.82910 | 19005 ft | 363 kts | 277° |
| 2026-05-03 20:45 | 35.71140 | -113.85959 | 18697 ft | 363 kts | 277° |
| 2026-05-03 20:45 | 35.71632 | -113.89007 | 18395 ft | 363 kts | 276° |
| 2026-05-03 20:45 | 35.72118 | -113.92018 | 18120 ft | 363 kts | 276° |
| 2026-05-03 20:46 | 35.72610 | -113.95072 | 17778 ft | 365 kts | 276° |
| 2026-05-03 20:46 | 35.73105 | -113.98151 | 17442 ft | 366 kts | 277° |
| 2026-05-03 20:46 | 35.73600 | -114.01230 | 17074 ft | 366 kts | 277° |
| 2026-05-03 20:46 | 35.74091 | -114.04296 | 16744 ft | 365 kts | 277° |
| 2026-05-03 20:47 | 35.74581 | -114.07354 | 16425 ft | 364 kts | 276° |
| 2026-05-03 20:47 | 35.75070 | -114.10414 | 16090 ft | 363 kts | 276° |
| 2026-05-03 20:47 | 35.75392 | -114.12432 | 15945 ft | 360 kts | 277° |
| 2026-05-03 20:47 | 35.75922 | -114.15430 | 15879 ft | 360 kts | 283° |
| 2026-05-03 20:48 | 35.77408 | -114.19140 | 15888 ft | 368 kts | 295° |
| 2026-05-03 20:48 | 35.78689 | -114.21884 | 15700 ft | 372 kts | 296° |
| 2026-05-03 20:48 | 35.79555 | -114.23754 | 15445 ft | 372 kts | 295° |
| 2026-05-03 20:48 | 35.80811 | -114.26531 | 15100 ft | 369 kts | 294° |
| 2026-05-03 20:49 | 35.82039 | -114.29298 | 14796 ft | 367 kts | 294° |
| 2026-05-03 20:49 | 35.83253 | -114.32047 | 14496 ft | 365 kts | 294° |
| 2026-05-03 20:49 | 35.84538 | -114.34765 | 14185 ft | 368 kts | 301° |
| 2026-05-03 20:49 | 35.86068 | -114.37301 | 13896 ft | 370 kts | 305° |
| 2026-05-03 20:50 | 35.87664 | -114.39744 | 13599 ft | 370 kts | 305° |
| 2026-05-03 20:50 | 35.89296 | -114.42231 | 13330 ft | 366 kts | 305° |
| 2026-05-03 20:50 | 35.90864 | -114.44670 | 13065 ft | 361 kts | 304° |
| 2026-05-03 20:50 | 35.92400 | -114.47104 | 12834 ft | 357 kts | 304° |
| 2026-05-03 20:51 | 35.93899 | -114.49506 | 12503 ft | 358 kts | 303° |
| 2026-05-03 20:51 | 35.95439 | -114.51990 | 12038 ft | 362 kts | 304° |
| 2026-05-03 20:51 | 35.96934 | -114.54401 | 11603 ft | 355 kts | 304° |
| 2026-05-03 20:51 | 35.98416 | -114.56803 | 11154 ft | 346 kts | 303° |
| 2026-05-03 20:52 | 35.99854 | -114.59141 | 10733 ft | 339 kts | 303° |
| 2026-05-03 20:52 | 36.01273 | -114.61446 | 10326 ft | 334 kts | 303° |
| 2026-05-03 20:52 | 36.02640 | -114.63729 | 9939 ft | 326 kts | 300° |
| 2026-05-03 20:52 | 36.03940 | -114.65984 | 9527 ft | 320 kts | 309° |
| 2026-05-03 20:53 | 36.05391 | -114.68017 | 9172 ft | 310 kts | 301° |
| 2026-05-03 20:53 | 36.06476 | -114.70284 | 8772 ft | 305 kts | 296° |
| 2026-05-03 20:53 | 36.07326 | -114.72657 | 8188 ft | 300 kts | 278° |
| 2026-05-03 20:53 | 36.07532 | -114.75163 | 7697 ft | 293 kts | 266° |
| 2026-05-03 20:54 | 36.07491 | -114.77678 | 7302 ft | 287 kts | 263° |
| 2026-05-03 20:54 | 36.07417 | -114.82497 | 6611 ft | 275 kts | 264° |
| 2026-05-03 20:54 | 36.07410 | -114.84783 | 6282 ft | 265 kts | 264° |
| 2026-05-03 20:55 | 36.07406 | -114.86992 | 5918 ft | 254 kts | 264° |
| 2026-05-03 20:55 | 36.07402 | -114.89113 | 5618 ft | 241 kts | 264° |
| 2026-05-03 20:55 | 36.07396 | -114.91138 | 5311 ft | 229 kts | 265° |
| 2026-05-03 20:55 | 36.07392 | -114.93044 | 5031 ft | 214 kts | 263° |
| 2026-05-03 20:56 | 36.07390 | -114.94816 | 4756 ft | 198 kts | 262° |
| 2026-05-03 20:56 | 36.07386 | -114.96453 | 4546 ft | 184 kts | 262° |
| 2026-05-03 20:56 | 36.07378 | -114.98044 | 4334 ft | 183 kts | 265° |
| 2026-05-03 20:56 | 36.07377 | -114.99481 | 4117 ft | 174 kts | 264° |
| 2026-05-03 20:57 | 36.07377 | -114.99901 | 4051 ft | 171 kts | 264° |
| 2026-05-03 20:57 | 36.07375 | -115.01348 | 3855 ft | 167 kts | 263° |
| 2026-05-03 20:57 | 36.07372 | -115.02776 | 3678 ft | 165 kts | 262° |
| 2026-05-03 20:57 | 36.07371 | -115.04184 | 3453 ft | 161 kts | 262° |
| 2026-05-03 20:58 | 36.07368 | -115.05552 | 3257 ft | 157 kts | 261° |
| 2026-05-03 20:58 | 36.07363 | -115.06897 | 2991 ft | 157 kts | 262° |
| 2026-05-03 20:58 | 36.07364 | -115.08249 | 2799 ft | 155 kts | 268° |
| 2026-05-03 20:58 | 36.07368 | -115.09560 | 2625 ft | 155 kts | 270° |
| 2026-05-03 20:59 | 36.07365 | -115.10898 | 2385 ft | 155 kts | 272° |
| 2026-05-03 20:59 | 36.07364 | -115.12229 | 2171 ft | 155 kts | 271° |
| 2026-05-03 20:59 | 36.07364 | -115.13523 | 2081 ft | 141 kts | 270° |
| 2026-05-03 20:59 | 36.07366 | -115.14541 | 2118 ft | 98 kts | 270° |
| 2026-05-03 21:00 | 36.07367 | -115.15132 | 2128 ft | 43 kts | 272° |
| 2026-05-03 21:00 | 36.07404 | -115.15353 | 2137 ft | 31 kts | 289° |
| 2026-05-03 21:00 | 36.07504 | -115.15575 | 2140 ft | 20 kts | 307° |
| 2026-05-03 21:00 | 36.07541 | -115.15624 | 2179 ft | 0 kts | 316° |
| 2026-05-03 21:01 | 36.07553 | -115.15637 | 2180 ft | 6 kts | 316° |
| 2026-05-03 21:01 | 36.07599 | -115.15694 | 2145 ft | 15 kts | 315° |
| 2026-05-03 21:01 | 36.07705 | -115.15810 | 2147 ft | 22 kts | 334° |
| 2026-05-03 21:02 | 36.07853 | -115.15824 | 2147 ft | 21 kts | 1° |
| 2026-05-03 21:02 | 36.08002 | -115.15823 | 2141 ft | 22 kts | 360° |
| 2026-05-03 21:02 | 36.08143 | -115.15814 | 2136 ft | 17 kts | 28° |
| 2026-05-03 21:02 | 36.08165 | -115.15678 | 2132 ft | 17 kts | 91° |
| 2026-05-03 21:03 | 36.08166 | -115.15533 | 2130 ft | 17 kts | 89° |
| 2026-05-03 21:03 | 36.08192 | -115.15423 | 2127 ft | 15 kts | 19° |
| 2026-05-03 21:03 | 36.08296 | -115.15471 | 2122 ft | 16 kts | 336° |
| 2026-05-03 21:03 | 36.08381 | -115.15435 | 2117 ft | 15 kts | 70° |
| 2026-05-03 21:04 | 36.08382 | -115.15345 | 2117 ft | 8 kts | 125° |
| 2026-05-03 21:04 | 36.08344 | -115.15315 | 2115 ft | 4 kts | 156° |
| 2026-05-03 21:04 | 36.08338 | -115.15312 | 2115 ft | 0 kts | 157° |
| 2026-05-03 21:04 | 36.08337 | -115.15312 | 2115 ft | 0 kts | 158° |